createdAt,value
2023-01-01T00:01:27.608Z,11.40
2023-01-01T00:03:55.568Z,10.70
2023-01-01T00:06:22.997Z,10.07
2023-01-01T00:09:10.270Z,10.20
2023-01-01T00:11:37.465Z,10.80
2023-01-01T00:14:11.744Z,12.52
2023-01-01T00:16:39.555Z,12.57
2023-01-01T00:19:06.825Z,13.13
2023-01-01T00:21:33.959Z,14.07
2023-01-01T00:24:01.259Z,13.05
2023-01-01T00:26:34.618Z,16.27
2023-01-01T00:29:02.844Z,9.43
2023-01-01T00:31:30.259Z,10.40
2023-01-01T00:33:57.960Z,10.27
2023-01-01T00:36:26.345Z,9.98
2023-01-01T00:38:53.508Z,8.48
2023-01-01T00:41:20.957Z,7.80
2023-01-01T00:43:48.390Z,7.28
2023-01-01T00:46:15.820Z,6.45
2023-01-01T00:48:43.173Z,5.97
2023-01-01T00:51:10.331Z,6.05
2023-01-01T00:53:37.501Z,5.35
2023-01-01T00:56:04.959Z,4.95
2023-01-01T00:58:32.222Z,4.75
2023-01-01T01:00:59.365Z,5.13
2023-01-01T01:03:29.424Z,3.35
2023-01-01T01:06:02.715Z,3.95
2023-01-01T01:08:31.428Z,3.58
2023-01-01T01:11:09.045Z,4.07
2023-01-01T01:13:36.656Z,3.70
2023-01-01T01:16:08.900Z,3.40
2023-01-01T01:18:36.118Z,3.10
2023-01-01T01:21:03.241Z,3.50
2023-01-01T01:23:30.561Z,2.85
2023-01-01T01:26:07.311Z,3.45
2023-01-01T01:28:34.495Z,3.25
2023-01-01T01:31:01.611Z,2.83
2023-01-01T01:33:28.865Z,3.05
2023-01-01T01:35:56.013Z,3.05
2023-01-01T01:38:23.140Z,3.67
2023-01-01T01:40:50.219Z,3.00
2023-01-01T01:43:25.152Z,2.90
2023-01-01T01:45:57.456Z,4.60
2023-01-01T01:48:24.878Z,2.63
2023-01-01T01:50:52.805Z,2.55
2023-01-01T01:53:28.128Z,3.08
2023-01-01T01:55:58.774Z,3.15
2023-01-01T01:58:26.378Z,3.28
2023-01-01T02:00:54.077Z,2.78
2023-01-01T02:03:29.731Z,2.70
2023-01-01T02:05:57.447Z,2.97
2023-01-01T02:08:24.988Z,2.40
2023-01-01T02:10:52.308Z,2.75
2023-01-01T02:13:19.723Z,2.80
2023-01-01T02:15:53.301Z,2.72
2023-01-01T02:18:25.710Z,2.55
2023-01-01T02:21:22.275Z,2.35
2023-01-01T02:23:52.534Z,3.00
2023-01-01T02:26:38.387Z,2.60
2023-01-01T02:29:08.601Z,2.13
2023-01-01T02:31:39.860Z,2.28
2023-01-01T02:34:10.765Z,2.30
2023-01-01T02:36:41.594Z,2.10
2023-01-01T02:39:09.178Z,2.10
2023-01-01T02:41:47.331Z,2.05
2023-01-01T02:44:14.546Z,2.10
2023-01-01T02:46:41.887Z,2.10
2023-01-01T02:49:10.933Z,2.35
2023-01-01T02:51:38.212Z,2.97
2023-01-01T02:54:20.665Z,2.38
2023-01-01T02:56:53.694Z,2.60
2023-01-01T02:59:51.583Z,1.67
2023-01-01T03:02:37.642Z,1.55
2023-01-01T03:05:19.056Z,1.92
2023-01-01T03:07:52.045Z,2.78
2023-01-01T03:10:24.812Z,2.17
2023-01-01T03:13:01.589Z,1.92
2023-01-01T03:15:48.850Z,1.77
2023-01-01T03:18:26.868Z,1.30
2023-01-01T03:20:54.972Z,1.75
2023-01-01T03:23:24.625Z,1.80
2023-01-01T03:25:53.551Z,1.20
2023-01-01T03:28:23.428Z,1.65
2023-01-01T03:30:51.864Z,1.95
2023-01-01T03:33:25.495Z,1.20
2023-01-01T03:35:54.985Z,1.98
2023-01-01T03:38:25.159Z,1.60
2023-01-01T03:40:53.505Z,1.63
2023-01-01T03:43:24.654Z,1.35
2023-01-01T03:45:52.845Z,1.50
2023-01-01T03:48:20.076Z,1.60
2023-01-01T03:50:47.197Z,1.70
2023-01-01T03:53:28.037Z,1.65
2023-01-01T03:58:27.416Z,1.83
2023-01-01T04:01:02.231Z,1.70
2023-01-01T04:03:30.546Z,1.70
2023-01-01T04:05:57.773Z,1.83
2023-01-01T04:08:25.026Z,1.70
2023-01-01T04:10:54.030Z,1.40
2023-01-01T04:13:21.368Z,1.42
2023-01-01T04:15:48.592Z,1.45
2023-01-01T04:18:15.876Z,1.67
2023-01-01T04:20:43.297Z,1.85
2023-01-01T04:23:10.477Z,1.85
2023-01-01T04:25:37.699Z,2.25
2023-01-01T04:28:04.929Z,1.58
2023-01-01T04:30:32.059Z,1.90
2023-01-01T04:32:59.184Z,1.42
2023-01-01T04:35:26.311Z,1.92
2023-01-01T04:37:53.487Z,1.85
2023-01-01T04:40:20.675Z,2.97
2023-01-01T04:42:47.810Z,1.70
2023-01-01T04:45:15.410Z,1.45
2023-01-01T04:47:43.052Z,1.92
2023-01-01T04:50:10.359Z,2.20
2023-01-01T04:52:37.665Z,1.52
2023-01-01T04:55:05.192Z,1.95
2023-01-01T04:57:32.629Z,2.05
2023-01-01T04:59:59.829Z,2.40
2023-01-01T05:02:27.445Z,1.83
2023-01-01T05:04:54.726Z,1.90
2023-01-01T05:07:21.884Z,1.80
2023-01-01T05:09:49.080Z,1.73
2023-01-01T05:12:16.280Z,1.70
2023-01-01T05:14:43.769Z,2.00
2023-01-01T05:17:10.872Z,1.65
2023-01-01T05:19:38.013Z,1.55
2023-01-01T05:22:10.477Z,1.70
2023-01-01T05:24:38.172Z,1.50
2023-01-01T05:27:05.368Z,1.63
2023-01-01T05:29:32.505Z,1.50
2023-01-01T05:31:59.646Z,1.80
2023-01-01T05:36:54.907Z,1.73
2023-01-01T05:39:22.051Z,1.65
2023-01-01T05:41:49.271Z,1.38
2023-01-01T05:44:17.323Z,1.30
2023-01-01T05:46:44.457Z,1.27
2023-01-01T05:49:12.670Z,1.33
2023-01-01T05:54:06.100Z,1.02
2023-01-01T05:56:33.223Z,1.10
2023-01-01T05:59:00.476Z,1.25
2023-01-01T06:01:28.939Z,0.77
2023-01-01T06:03:57.141Z,1.00
2023-01-01T06:06:28.867Z,0.80
2023-01-01T06:09:03.289Z,0.90
2023-01-01T06:11:31.314Z,0.98
2023-01-01T06:13:59.619Z,0.93
2023-01-01T06:16:27.938Z,1.20
2023-01-01T06:18:55.124Z,0.82
2023-01-01T06:21:23.645Z,1.35
2023-01-01T06:23:50.749Z,0.88
2023-01-01T06:26:22.187Z,1.02
2023-01-01T06:28:49.354Z,1.33
2023-01-01T06:31:17.878Z,0.95
2023-01-01T06:33:45.522Z,0.75
2023-01-01T06:36:13.719Z,0.93
2023-01-01T06:38:42.396Z,0.63
2023-01-01T06:41:12.065Z,0.77
2023-01-01T06:43:39.358Z,0.80
2023-01-01T06:46:06.574Z,0.70
2023-01-01T06:48:34.788Z,0.90
2023-01-01T06:51:12.334Z,0.88
2023-01-01T06:53:39.653Z,0.90
2023-01-01T06:56:07.347Z,0.82
2023-01-01T06:58:34.516Z,0.65
2023-01-01T07:01:08.700Z,0.70
2023-01-01T07:03:36.418Z,0.70
2023-01-01T07:06:03.650Z,0.85
2023-01-01T07:08:30.729Z,0.80
2023-01-01T07:10:58.043Z,0.68
2023-01-01T07:13:28.554Z,0.88
2023-01-01T07:15:56.189Z,0.60
2023-01-01T07:18:24.266Z,1.48
2023-01-01T07:20:53.330Z,0.80
2023-01-01T07:23:20.456Z,0.77
2023-01-01T07:25:49.768Z,1.10
2023-01-01T07:28:16.900Z,0.70
2023-01-01T07:30:44.240Z,1.05
2023-01-01T07:33:12.630Z,1.55
2023-01-01T07:35:39.779Z,0.85
2023-01-01T07:38:06.957Z,0.65
2023-01-01T07:40:34.317Z,0.80
2023-01-01T07:43:01.406Z,1.27
2023-01-01T07:45:28.490Z,0.68
2023-01-01T07:47:56.379Z,0.65
2023-01-01T07:50:24.484Z,1.02
2023-01-01T07:52:51.613Z,0.60
2023-01-01T07:55:19.725Z,0.73
2023-01-01T07:57:47.631Z,0.73
2023-01-01T08:00:16.164Z,0.70
2023-01-01T08:02:43.682Z,2.13
2023-01-01T08:05:10.896Z,1.10
2023-01-01T08:07:38.140Z,0.70
2023-01-01T08:10:05.985Z,0.60
2023-01-01T08:12:33.702Z,0.65
2023-01-01T08:15:00.835Z,0.75
2023-01-01T08:17:28.083Z,1.13
2023-01-01T08:19:55.204Z,0.63
2023-01-01T08:22:22.315Z,0.70
2023-01-01T08:24:49.400Z,0.88
2023-01-01T08:27:16.985Z,0.73
2023-01-01T08:29:45.138Z,1.02
2023-01-01T08:32:13.132Z,1.40
2023-01-01T08:34:40.249Z,0.88
2023-01-01T08:37:07.621Z,1.75
2023-01-01T08:39:34.692Z,1.05
2023-01-01T08:42:04.700Z,1.23
2023-01-01T08:44:34.249Z,1.48
2023-01-01T08:47:01.367Z,0.80
2023-01-01T08:49:28.715Z,1.10
2023-01-01T08:51:55.853Z,1.50
2023-01-01T08:54:22.912Z,1.33
2023-01-01T08:56:50.014Z,0.90
2023-01-01T08:59:17.462Z,1.20
2023-01-01T09:01:44.796Z,0.88
2023-01-01T09:04:15.795Z,1.15
2023-01-01T09:06:43.097Z,0.90
2023-01-01T09:09:10.344Z,1.00
2023-01-01T09:11:37.471Z,1.13
2023-01-01T09:14:04.617Z,0.98
2023-01-01T09:16:31.806Z,1.45
2023-01-01T09:18:59.140Z,1.25
2023-01-01T09:21:26.273Z,1.27
2023-01-01T09:23:53.378Z,1.05
2023-01-01T09:26:20.484Z,1.08
2023-01-01T09:28:47.629Z,1.27
2023-01-01T09:31:14.988Z,1.40
2023-01-01T09:33:42.252Z,1.25
2023-01-01T09:36:29.213Z,1.60
2023-01-01T09:38:56.965Z,1.35
2023-01-01T09:41:39.718Z,1.20
2023-01-01T09:44:22.113Z,1.30
2023-01-01T09:46:49.778Z,1.25
2023-01-01T09:49:24.525Z,1.20
2023-01-01T09:51:58.179Z,1.45
2023-01-01T09:54:37.745Z,0.98
2023-01-01T09:57:09.795Z,1.10
2023-01-01T09:59:40.613Z,1.10
2023-01-01T10:02:26.609Z,1.30
2023-01-01T10:05:12.527Z,0.90
2023-01-01T10:07:48.016Z,1.23
2023-01-01T10:10:41.545Z,1.25
2023-01-01T10:13:14.720Z,1.25
2023-01-01T10:15:45.777Z,1.23
2023-01-01T10:18:18.445Z,0.98
2023-01-01T10:20:49.248Z,1.10
2023-01-01T10:23:27.491Z,1.10
2023-01-01T10:25:56.818Z,1.23
2023-01-01T10:28:28.095Z,1.20
2023-01-01T10:30:59.217Z,1.23
2023-01-01T10:33:26.385Z,0.95
2023-01-01T10:35:56.899Z,1.42
2023-01-01T10:38:25.163Z,0.80
2023-01-01T10:40:53.780Z,1.10
2023-01-01T10:43:20.868Z,1.60
2023-01-01T10:45:51.400Z,1.65
2023-01-01T10:48:22.500Z,1.60
2023-01-01T10:50:57.376Z,1.40
2023-01-01T10:53:29.722Z,1.20
2023-01-01T10:56:07.528Z,1.20
2023-01-01T10:58:39.390Z,1.23
2023-01-01T11:01:08.116Z,1.20
2023-01-01T11:03:35.574Z,1.30
2023-01-01T11:06:21.089Z,1.27
2023-01-01T11:08:52.452Z,1.30
2023-01-01T11:11:21.067Z,1.35
2023-01-01T11:16:15.939Z,1.50
2023-01-01T11:18:43.166Z,1.20
2023-01-01T11:21:10.443Z,1.20
2023-01-01T11:23:38.914Z,1.20
2023-01-01T11:26:18.152Z,1.45
2023-01-01T11:29:01.815Z,1.70
2023-01-01T11:31:36.627Z,2.17
2023-01-01T11:36:35.420Z,1.42
2023-01-01T11:39:23.134Z,1.58
2023-01-01T11:41:52.001Z,1.65
2023-01-01T11:44:37.515Z,1.80
2023-01-01T11:47:05.818Z,1.85
2023-01-01T11:49:33.118Z,1.58
2023-01-01T11:52:00.567Z,1.90
2023-01-01T11:54:36.070Z,1.80
2023-01-01T11:57:23.544Z,1.73
2023-01-01T11:59:54.378Z,1.50
2023-01-01T12:02:37.098Z,1.88
2023-01-01T12:05:07.031Z,2.38
2023-01-01T12:07:37.681Z,2.03
2023-01-01T12:10:05.044Z,1.70
2023-01-01T12:12:36.400Z,2.00
2023-01-01T12:15:03.875Z,2.13
2023-01-01T12:17:40.454Z,2.20
2023-01-01T12:20:13.448Z,2.45
2023-01-01T12:22:41.383Z,1.88
2023-01-01T12:25:12.872Z,2.47
2023-01-01T12:27:44.605Z,1.90
2023-01-01T12:30:23.387Z,2.30
2023-01-01T12:33:07.925Z,1.98
2023-01-01T12:35:53.595Z,2.35
2023-01-01T12:38:33.130Z,2.40
2023-01-01T12:41:00.272Z,1.77
2023-01-01T12:43:32.369Z,1.73
2023-01-01T12:45:59.538Z,1.90
2023-01-01T12:48:26.852Z,1.83
2023-01-01T12:51:16.230Z,2.55
2023-01-01T12:53:43.455Z,2.22
2023-01-01T12:56:10.590Z,1.70
2023-01-01T12:58:40.691Z,2.47
2023-01-01T13:01:15.451Z,2.00
2023-01-01T13:08:37.744Z,2.42
2023-01-01T13:11:06.121Z,1.70
2023-01-01T13:13:33.441Z,2.30
2023-01-01T13:16:00.661Z,2.00
2023-01-01T13:18:33.615Z,1.70
2023-01-01T13:21:02.513Z,2.80
2023-01-01T13:23:29.595Z,2.28
2023-01-01T13:26:15.556Z,1.52
2023-01-01T13:28:42.709Z,1.67
2023-01-01T13:31:09.860Z,2.05
2023-01-01T13:33:37.097Z,2.05
2023-01-01T13:36:11.296Z,2.20
2023-01-01T13:38:54.883Z,2.25
2023-01-01T13:41:28.178Z,2.25
2023-01-01T13:44:11.815Z,2.38
2023-01-01T13:46:47.044Z,2.90
2023-01-01T13:49:32.672Z,2.50
2023-01-01T13:52:12.086Z,2.25
2023-01-01T13:54:40.158Z,2.10
2023-01-01T13:57:26.160Z,2.08
2023-01-01T13:59:56.405Z,1.98
2023-01-01T14:02:25.907Z,2.00
2023-01-01T14:05:11.994Z,1.73
2023-01-01T14:07:52.787Z,2.03
2023-01-01T14:10:20.274Z,1.90
2023-01-01T14:12:47.709Z,1.83
2023-01-01T14:15:16.033Z,1.80
2023-01-01T14:17:43.759Z,1.80
2023-01-01T14:20:15.619Z,2.38
2023-01-01T14:22:44.486Z,1.63
2023-01-01T14:25:26.726Z,2.22
2023-01-01T14:27:55.002Z,1.85
2023-01-01T14:30:22.241Z,2.60
2023-01-01T14:32:56.514Z,2.60
2023-01-01T14:35:23.671Z,1.90
2023-01-01T14:37:51.004Z,2.45
2023-01-01T14:40:18.219Z,2.85
2023-01-01T14:42:46.488Z,2.00
2023-01-01T14:45:18.428Z,2.45
2023-01-01T14:47:48.227Z,2.72
2023-01-01T14:50:41.657Z,3.20
2023-01-01T14:53:13.254Z,1.88
2023-01-01T14:55:42.200Z,2.40
2023-01-01T14:58:14.477Z,2.50
2023-01-01T15:00:41.717Z,2.70
2023-01-01T15:03:19.572Z,2.33
2023-01-01T15:05:57.598Z,2.45
2023-01-01T15:08:26.776Z,2.47
2023-01-01T15:10:54.766Z,2.72
2023-01-01T15:13:26.490Z,2.45
2023-01-01T15:15:54.634Z,3.33
2023-01-01T15:18:41.925Z,3.33
2023-01-01T15:21:21.055Z,3.53
2023-01-01T15:23:51.980Z,3.60
2023-01-01T15:26:30.250Z,3.40
2023-01-01T15:28:59.005Z,3.00
2023-01-01T15:33:53.451Z,2.75
2023-01-01T15:36:24.644Z,2.20
2023-01-01T15:38:52.320Z,2.50
2023-01-01T15:41:38.267Z,2.50
2023-01-01T15:44:28.756Z,2.13
2023-01-01T15:47:04.309Z,2.70
2023-01-01T15:49:33.284Z,19.98
2023-01-01T15:52:03.866Z,7.75
2023-01-01T15:54:31.556Z,5.30
2023-01-01T15:56:58.737Z,3.67
2023-01-01T15:59:28.390Z,3.60
2023-01-01T16:02:06.637Z,3.78
2023-01-01T16:04:34.013Z,3.70
2023-01-01T16:07:01.186Z,5.05
2023-01-01T16:09:28.523Z,3.90
2023-01-01T16:11:57.038Z,3.60
2023-01-01T16:14:24.224Z,3.85
2023-01-01T16:16:54.792Z,3.97
2023-01-01T16:19:22.232Z,3.60
2023-01-01T16:21:49.375Z,2.72
2023-01-01T16:24:17.820Z,3.35
2023-01-01T16:26:45.374Z,2.65
2023-01-01T16:29:12.554Z,2.70
2023-01-01T16:31:40.024Z,2.78
2023-01-01T16:34:07.635Z,3.20
2023-01-01T16:36:34.743Z,3.05
2023-01-01T16:39:01.877Z,3.50
2023-01-01T16:41:30.250Z,2.60
2023-01-01T16:43:57.943Z,2.45
2023-01-01T16:46:27.918Z,2.33
2023-01-01T16:48:55.203Z,2.45
2023-01-01T16:51:26.383Z,2.70
2023-01-01T16:53:53.671Z,2.88
2023-01-01T16:56:20.945Z,2.65
2023-01-01T16:58:50.095Z,3.15
2023-01-01T17:01:18.892Z,3.20
2023-01-01T17:03:46.214Z,3.55
2023-01-01T17:06:13.348Z,2.80
2023-01-01T17:08:40.617Z,2.90
2023-01-01T17:11:10.814Z,2.70
2023-01-01T17:13:38.022Z,3.05
2023-01-01T17:16:05.369Z,2.63
2023-01-01T17:19:04.222Z,3.90
2023-01-01T17:23:46.981Z,3.15
2023-01-01T17:26:16.050Z,3.20
2023-01-01T17:28:44.084Z,3.70
2023-01-01T17:31:12.964Z,3.58
2023-01-01T17:33:40.855Z,3.88
2023-01-01T17:36:08.590Z,3.28
2023-01-01T17:38:36.064Z,2.97
2023-01-01T17:41:04.174Z,3.55
2023-01-01T17:43:32.726Z,3.05
2023-01-01T17:46:03.172Z,3.40
2023-01-01T17:48:30.287Z,2.63
2023-01-01T17:50:57.445Z,3.15
2023-01-01T17:53:24.590Z,2.80
2023-01-01T17:55:51.845Z,3.53
2023-01-01T17:58:18.961Z,4.05
2023-01-01T18:00:46.091Z,3.40
2023-01-01T18:03:13.810Z,4.07
2023-01-01T18:05:41.195Z,3.20
2023-01-01T18:08:08.380Z,3.55
2023-01-01T18:10:35.573Z,3.90
2023-01-01T18:13:02.904Z,3.72
2023-01-01T18:15:30.029Z,3.60
2023-01-01T18:17:57.120Z,3.83
2023-01-01T18:20:24.257Z,4.55
2023-01-01T18:22:53.783Z,5.50
2023-01-01T18:25:20.901Z,6.05
2023-01-01T18:27:51.269Z,4.63
2023-01-01T18:30:22.960Z,4.35
2023-01-01T18:32:50.297Z,6.05
2023-01-01T18:35:17.524Z,7.18
2023-01-01T18:37:44.735Z,5.05
2023-01-01T18:40:13.497Z,4.68
2023-01-01T18:45:15.571Z,4.53
2023-01-01T18:47:45.724Z,5.82
2023-01-01T18:50:27.699Z,3.90
2023-01-01T18:53:07.305Z,4.03
2023-01-01T18:55:34.425Z,4.35
2023-01-01T18:58:06.007Z,4.95
2023-01-01T19:00:35.962Z,4.93
2023-01-01T19:03:04.390Z,3.63
2023-01-01T19:05:35.349Z,4.82
2023-01-01T19:08:11.308Z,5.35
2023-01-01T19:10:43.799Z,3.88
2023-01-01T19:13:16.254Z,4.75
2023-01-01T19:15:48.840Z,4.35
2023-01-01T19:18:20.614Z,3.63
2023-01-01T19:20:50.053Z,3.70
2023-01-01T19:23:19.371Z,3.50
2023-01-01T19:25:46.845Z,4.00
2023-01-01T19:28:14.007Z,3.40
2023-01-01T19:30:41.113Z,3.80
2023-01-01T19:33:08.257Z,3.45
2023-01-01T19:35:35.415Z,3.53
2023-01-01T19:38:02.576Z,3.03
2023-01-01T19:40:29.819Z,3.03
2023-01-01T19:42:57.269Z,3.05
2023-01-01T19:45:27.645Z,3.50
2023-01-01T19:47:54.751Z,4.05
2023-01-01T19:50:21.869Z,3.60
2023-01-01T19:52:48.981Z,3.70
2023-01-01T19:55:16.193Z,3.40
2023-01-01T19:57:43.327Z,3.63
2023-01-01T20:00:10.659Z,3.47
2023-01-01T20:02:46.909Z,3.08
2023-01-01T20:05:15.066Z,4.28
2023-01-01T20:07:42.216Z,2.67
2023-01-01T20:10:09.601Z,3.10
2023-01-01T20:12:36.725Z,3.20
2023-01-01T20:15:04.161Z,3.03
2023-01-01T20:17:31.307Z,3.17
2023-01-01T20:19:58.570Z,3.13
2023-01-01T20:22:25.697Z,3.70
2023-01-01T20:24:52.984Z,3.33
2023-01-01T20:27:26.827Z,2.90
2023-01-01T20:29:54.415Z,3.42
2023-01-01T20:32:21.974Z,2.88
2023-01-01T20:34:49.238Z,3.70
2023-01-01T20:37:35.305Z,2.63
2023-01-01T20:40:02.410Z,3.30
2023-01-01T20:42:29.608Z,3.20
2023-01-01T20:44:56.728Z,2.75
2023-01-01T20:47:23.847Z,3.50
2023-01-01T20:49:50.948Z,2.42
2023-01-01T20:52:18.072Z,2.55
2023-01-01T20:54:45.140Z,2.90
2023-01-01T20:57:12.297Z,2.85
2023-01-01T20:59:39.538Z,2.50
2023-01-01T21:02:08.395Z,2.92
2023-01-01T21:04:39.962Z,2.92
2023-01-01T21:07:09.371Z,2.97
2023-01-01T21:09:36.678Z,2.80
2023-01-01T21:12:04.151Z,2.72
2023-01-01T21:14:31.378Z,2.70
2023-01-01T21:16:58.648Z,3.00
2023-01-01T21:19:27.164Z,2.63
2023-01-01T21:21:56.025Z,2.83
2023-01-01T21:24:25.544Z,3.13
2023-01-01T21:26:54.060Z,2.70
2023-01-01T21:29:22.117Z,2.58
2023-01-01T21:32:06.769Z,3.00
2023-01-01T21:34:42.020Z,2.78
2023-01-01T21:37:42.142Z,2.70
2023-01-01T21:40:28.113Z,2.22
2023-01-01T21:42:56.193Z,2.33
2023-01-01T21:45:26.225Z,3.00
2023-01-01T21:47:53.376Z,3.35
2023-01-01T21:50:29.601Z,3.03
2023-01-01T21:53:00.749Z,5.15
2023-01-01T21:55:52.073Z,3.75
2023-01-01T21:58:39.144Z,3.55
2023-01-01T22:01:18.477Z,2.85
2023-01-01T22:03:45.657Z,3.47
2023-01-01T22:06:16.600Z,3.30
2023-01-01T22:08:44.865Z,3.58
2023-01-01T22:11:30.372Z,4.20
2023-01-01T22:13:57.851Z,3.97
2023-01-01T22:16:29.561Z,4.30
2023-01-01T22:18:57.235Z,4.10
2023-01-01T22:21:24.378Z,4.47
2023-01-01T22:23:53.993Z,4.22
2023-01-01T22:26:27.583Z,3.97
2023-01-01T22:29:02.749Z,4.05
2023-01-01T22:31:32.178Z,3.72
2023-01-01T22:34:00.716Z,3.95
2023-01-01T22:36:33.754Z,3.25
2023-01-01T22:39:10.369Z,3.92
2023-01-01T22:41:37.559Z,4.05
2023-01-01T22:44:05.068Z,3.78
2023-01-01T22:46:37.582Z,3.22
2023-01-01T22:49:25.114Z,3.53
2023-01-01T22:51:56.263Z,3.85
2023-01-01T22:54:23.817Z,4.00
2023-01-01T22:56:50.980Z,3.28
2023-01-01T22:59:18.214Z,4.30
2023-01-01T23:01:45.393Z,4.40
2023-01-01T23:04:12.544Z,4.47
2023-01-01T23:06:39.764Z,3.83
2023-01-01T23:09:08.369Z,2.78
2023-01-01T23:11:35.522Z,3.45
2023-01-01T23:14:21.737Z,2.78
2023-01-01T23:16:48.914Z,4.22
2023-01-01T23:19:16.324Z,3.55
2023-01-01T23:21:43.612Z,3.70
2023-01-01T23:24:16.023Z,3.70
2023-01-01T23:26:43.712Z,3.28
2023-01-01T23:29:11.807Z,3.90
2023-01-01T23:31:39.843Z,3.25
2023-01-01T23:34:07.170Z,3.55
2023-01-01T23:36:34.909Z,3.45
2023-01-01T23:39:02.018Z,3.90
2023-01-01T23:41:29.205Z,3.85
2023-01-01T23:43:56.332Z,3.92
2023-01-01T23:46:23.706Z,3.67
2023-01-01T23:48:51.279Z,3.75
2023-01-01T23:51:19.000Z,3.97
2023-01-01T23:53:46.524Z,4.10
2023-01-01T23:56:13.944Z,3.78
2023-01-01T23:58:41.604Z,3.42
